createdAt,value
2023-01-08T00:00:17.207Z,100232.60
2023-01-08T00:03:05.257Z,100229.52
2023-01-08T00:05:33.211Z,100230.50
2023-01-08T00:08:01.302Z,100227.14
2023-01-08T00:10:29.442Z,100226.12
2023-01-08T00:12:57.334Z,100223.66
2023-01-08T00:15:25.436Z,100226.05
2023-01-08T00:17:53.914Z,100227.83
2023-01-08T00:20:21.867Z,100227.81
2023-01-08T00:22:50.424Z,100225.81
2023-01-08T00:25:19.058Z,100225.30
2023-01-08T00:27:47.056Z,100219.02
2023-01-08T00:30:14.992Z,100218.19
2023-01-08T00:32:43.696Z,100210.15
2023-01-08T00:35:11.549Z,100199.89
2023-01-08T00:37:40.136Z,100193.65
2023-01-08T00:40:08.756Z,100202.73
2023-01-08T00:42:36.566Z,100204.05
2023-01-08T00:45:05.182Z,100202.64
2023-01-08T00:47:33.534Z,100194.23
2023-01-08T00:50:01.431Z,100200.38
2023-01-08T00:52:29.576Z,100201.39
2023-01-08T00:54:58.122Z,100199.71
2023-01-08T00:57:26.476Z,100196.05
2023-01-08T00:59:55.239Z,100200.34
2023-01-08T01:02:23.619Z,100202.61
2023-01-08T01:04:54.543Z,100199.73
2023-01-08T01:07:22.590Z,100201.08
2023-01-08T01:09:50.967Z,100208.66
2023-01-08T01:12:19.234Z,100208.98
2023-01-08T01:14:47.261Z,100213.60
2023-01-08T01:17:15.296Z,100206.41
2023-01-08T01:19:43.791Z,100209.05
2023-01-08T01:22:12.013Z,100207.11
2023-01-08T01:24:40.068Z,100206.25
2023-01-08T01:27:07.944Z,100200.91
2023-01-08T01:29:35.889Z,100196.05
2023-01-08T01:32:04.207Z,100193.77
2023-01-08T01:34:32.088Z,100195.48
2023-01-08T01:37:00.638Z,100193.13
2023-01-08T01:39:28.610Z,100187.39
2023-01-08T01:41:56.439Z,100185.55
2023-01-08T01:44:46.618Z,100189.63
2023-01-08T01:47:38.424Z,100187.19
2023-01-08T01:50:09.583Z,100186.58
2023-01-08T01:52:42.709Z,100181.05
2023-01-08T01:55:15.138Z,100178.19
2023-01-08T01:57:51.249Z,100175.63
2023-01-08T02:00:20.440Z,100182.12
2023-01-08T02:02:48.805Z,100188.87
2023-01-08T02:05:18.096Z,100188.95
2023-01-08T02:07:52.831Z,100182.95
2023-01-08T02:10:27.718Z,100180.30
2023-01-08T02:12:59.376Z,100180.19
2023-01-08T02:15:32.178Z,100178.50
2023-01-08T02:18:03.832Z,100173.20
2023-01-08T02:20:36.441Z,100170.61
2023-01-08T02:23:34.484Z,100169.34
2023-01-08T02:26:34.482Z,100165.03
2023-01-08T02:29:13.189Z,100161.92
2023-01-08T02:31:42.326Z,100156.30
2023-01-08T02:34:11.840Z,100153.70
2023-01-08T02:36:46.071Z,100151.42
2023-01-08T02:39:42.230Z,100154.34
2023-01-08T02:42:24.311Z,100149.20
2023-01-08T02:44:55.455Z,100141.65
2023-01-08T02:47:34.926Z,100129.41
2023-01-08T02:50:15.006Z,100141.39
2023-01-08T02:52:51.057Z,100153.66
2023-01-08T02:55:21.215Z,100163.70
2023-01-08T02:57:49.259Z,100156.10
2023-01-08T03:00:17.186Z,100155.83
2023-01-08T03:02:45.204Z,100158.97
2023-01-08T03:05:23.718Z,100157.58
2023-01-08T03:07:51.737Z,100164.96
2023-01-08T03:10:22.912Z,100161.89
2023-01-08T03:12:56.148Z,100166.91
2023-01-08T03:15:51.770Z,100165.20
2023-01-08T03:18:24.825Z,100163.15
2023-01-08T03:20:52.718Z,100160.59
2023-01-08T03:23:22.309Z,100153.31
2023-01-08T03:25:50.152Z,100154.20
2023-01-08T03:28:30.548Z,100151.04
2023-01-08T03:30:59.380Z,100145.83
2023-01-08T03:33:28.108Z,100141.75
2023-01-08T03:36:00.108Z,100151.42
2023-01-08T03:38:31.320Z,100141.13
2023-01-08T03:41:05.645Z,100134.76
2023-01-08T03:43:33.572Z,100133.58
2023-01-08T03:46:09.761Z,100127.05
2023-01-08T03:48:38.836Z,100119.86
2023-01-08T03:51:10.407Z,100100.24
2023-01-08T03:53:38.368Z,100078.57
2023-01-08T03:56:06.830Z,100072.05
2023-01-08T03:58:34.804Z,100071.29
2023-01-08T04:01:02.598Z,100079.48
2023-01-08T04:03:30.545Z,100084.50
2023-01-08T04:06:01.292Z,100084.15
2023-01-08T04:08:29.266Z,100085.29
2023-01-08T04:10:57.271Z,100080.98
2023-01-08T04:13:25.401Z,100064.92
2023-01-08T04:15:53.539Z,100063.66
2023-01-08T04:18:21.746Z,100070.14
2023-01-08T04:20:49.542Z,100074.50
2023-01-08T04:23:20.613Z,100081.16
2023-01-08T04:25:48.481Z,100086.46
2023-01-08T04:28:16.204Z,100089.39
2023-01-08T04:30:44.556Z,100098.08
2023-01-08T04:33:12.459Z,100102.95
2023-01-08T04:35:40.299Z,100100.81
2023-01-08T04:38:09.394Z,100088.67
2023-01-08T04:40:38.354Z,100077.27
2023-01-08T04:43:06.188Z,100076.20
2023-01-08T04:45:34.317Z,100072.20
2023-01-08T04:48:02.280Z,100068.31
2023-01-08T04:50:30.073Z,100069.70
2023-01-08T04:52:58.881Z,100070.69
2023-01-08T04:55:27.110Z,100071.98
2023-01-08T04:57:54.887Z,100066.48
2023-01-08T05:00:22.689Z,100059.08
2023-01-08T05:02:51.055Z,100054.91
2023-01-08T05:05:19.016Z,100049.02
2023-01-08T05:07:46.845Z,100048.05
2023-01-08T05:10:15.137Z,100046.19
2023-01-08T05:12:43.001Z,100046.96
2023-01-08T05:15:11.328Z,100034.85
2023-01-08T05:17:39.358Z,100031.14
2023-01-08T05:20:08.410Z,100038.91
2023-01-08T05:22:36.168Z,100033.59
2023-01-08T05:25:04.372Z,100033.71
2023-01-08T05:27:32.275Z,100042.30
2023-01-08T05:30:00.089Z,100040.81
2023-01-08T05:32:28.193Z,100037.62
2023-01-08T05:34:55.902Z,100034.98
2023-01-08T05:37:23.740Z,100028.80
2023-01-08T05:39:51.588Z,100024.24
2023-01-08T05:42:19.431Z,100026.23
2023-01-08T05:44:47.225Z,100024.62
2023-01-08T05:47:15.341Z,100015.39
2023-01-08T05:49:43.180Z,100009.15
2023-01-08T05:52:10.944Z,100017.66
2023-01-08T05:54:38.917Z,100021.81
2023-01-08T05:57:06.895Z,100020.43
2023-01-08T05:59:34.701Z,100017.04
2023-01-08T06:02:04.841Z,100017.70
2023-01-08T06:04:32.826Z,100011.38
2023-01-08T06:07:00.707Z,100009.31
2023-01-08T06:09:28.513Z,100004.05
2023-01-08T06:11:58.346Z,100004.81
2023-01-08T06:14:26.160Z,100003.27
2023-01-08T06:16:54.530Z,100002.26
2023-01-08T06:19:25.638Z,100000.79
2023-01-08T06:21:53.397Z,99992.79
2023-01-08T06:24:21.467Z,99987.92
2023-01-08T06:26:49.443Z,99987.44
2023-01-08T06:29:17.506Z,99989.45
2023-01-08T06:31:45.560Z,99989.08
2023-01-08T06:34:13.448Z,99983.60
2023-01-08T06:36:41.337Z,99982.86
2023-01-08T06:39:09.511Z,99983.67
2023-01-08T06:41:37.360Z,99982.20
2023-01-08T06:44:05.523Z,99977.02
2023-01-08T06:46:38.583Z,99975.30
2023-01-08T06:49:07.390Z,99968.80
2023-01-08T06:51:36.373Z,99969.00
2023-01-08T06:54:04.344Z,99973.54
2023-01-08T06:56:35.676Z,99973.42
2023-01-08T06:59:08.196Z,99977.96
2023-01-08T07:01:36.301Z,99979.80
2023-01-08T07:04:04.250Z,99985.17
2023-01-08T07:06:32.278Z,99984.62
2023-01-08T07:09:03.132Z,99987.53
2023-01-08T07:11:30.992Z,99988.70
2023-01-08T07:13:58.991Z,99994.52
2023-01-08T07:16:26.973Z,99989.48
2023-01-08T07:18:54.999Z,99986.52
2023-01-08T07:21:23.660Z,99989.77
2023-01-08T07:23:51.591Z,99992.08
2023-01-08T07:26:19.446Z,99990.59
2023-01-08T07:28:47.407Z,99981.98
2023-01-08T07:31:15.437Z,99977.89
2023-01-08T07:33:43.280Z,99970.91
2023-01-08T07:36:11.324Z,99974.08
2023-01-08T07:38:39.305Z,99968.44
2023-01-08T07:41:07.123Z,99960.25
2023-01-08T07:43:35.732Z,99954.99
2023-01-08T07:46:03.954Z,99954.77
2023-01-08T07:48:32.112Z,99951.71
2023-01-08T07:51:04.390Z,99950.73
2023-01-08T07:53:32.521Z,99951.57
2023-01-08T07:56:01.392Z,99945.59
2023-01-08T07:58:29.382Z,99940.70
2023-01-08T08:00:59.260Z,99943.84
2023-01-08T08:03:27.511Z,99943.25
2023-01-08T08:05:55.499Z,99946.92
2023-01-08T08:08:23.319Z,99948.28
2023-01-08T08:10:51.161Z,99943.75
2023-01-08T08:13:19.250Z,99935.30
2023-01-08T08:15:47.363Z,99936.10
2023-01-08T08:18:15.211Z,99933.91
2023-01-08T08:20:43.288Z,99930.14
2023-01-08T08:23:14.171Z,99921.85
2023-01-08T08:25:42.901Z,99916.62
2023-01-08T08:28:12.432Z,99914.77
2023-01-08T08:30:42.511Z,99915.77
2023-01-08T08:33:10.922Z,99908.05
2023-01-08T08:35:38.920Z,99905.75
2023-01-08T08:38:06.776Z,99899.48
2023-01-08T08:40:34.635Z,99895.67
2023-01-08T08:43:04.082Z,99898.67
2023-01-08T08:45:31.963Z,99918.08
2023-01-08T08:48:00.035Z,99923.10
2023-01-08T08:50:28.084Z,99905.06
2023-01-08T08:53:00.663Z,99899.82
2023-01-08T08:55:29.008Z,99905.52
2023-01-08T08:58:04.457Z,99904.83
2023-01-08T09:00:32.929Z,99914.60
2023-01-08T09:03:01.278Z,99911.44
2023-01-08T09:05:30.448Z,99915.10
2023-01-08T09:07:58.805Z,99919.67
2023-01-08T09:10:26.880Z,99918.06
2023-01-08T09:12:55.066Z,99913.72
2023-01-08T09:15:23.328Z,99915.23
2023-01-08T09:17:57.789Z,99911.48
2023-01-08T09:20:27.036Z,99910.70
2023-01-08T09:22:55.623Z,99916.73
2023-01-08T09:25:23.661Z,99917.27
2023-01-08T09:28:00.167Z,99913.40
2023-01-08T09:30:28.864Z,99912.96
2023-01-08T09:33:02.483Z,99911.77
2023-01-08T09:35:34.234Z,99913.35
2023-01-08T09:38:03.035Z,99905.42
2023-01-08T09:40:44.412Z,99901.45
2023-01-08T09:43:18.108Z,99899.41
2023-01-08T09:45:50.279Z,99898.40
2023-01-08T09:48:19.071Z,99893.95
2023-01-08T09:50:48.124Z,99886.13
2023-01-08T09:53:17.802Z,99888.48
2023-01-08T09:56:08.266Z,99885.00
2023-01-08T09:58:41.857Z,99873.33
2023-01-08T10:01:13.671Z,99868.56
2023-01-08T10:03:44.663Z,99861.69
2023-01-08T10:06:14.617Z,99856.41
2023-01-08T10:08:42.793Z,99852.01
2023-01-08T10:11:12.161Z,99848.18
2023-01-08T10:13:42.576Z,99845.77
2023-01-08T10:16:22.135Z,99848.30
2023-01-08T10:18:50.112Z,99845.98
2023-01-08T10:21:18.536Z,99846.70
2023-01-08T10:23:52.277Z,99844.23
2023-01-08T10:26:47.915Z,99838.21
2023-01-08T10:29:18.712Z,99825.48
2023-01-08T10:31:54.983Z,99833.95
2023-01-08T10:34:39.780Z,99831.23
2023-01-08T10:37:29.616Z,99823.52
2023-01-08T10:40:24.143Z,99818.83
2023-01-08T10:42:52.957Z,99814.25
2023-01-08T10:45:26.459Z,99813.66
2023-01-08T10:48:16.820Z,99809.88
2023-01-08T10:50:45.164Z,99813.36
2023-01-08T10:53:28.745Z,99816.09
2023-01-08T10:56:01.338Z,99804.34
2023-01-08T10:58:29.669Z,99807.78
2023-01-08T11:01:12.678Z,99799.86
2023-01-08T11:03:41.173Z,99786.42
2023-01-08T11:06:23.613Z,99784.61
2023-01-08T11:08:57.591Z,99779.98
2023-01-08T11:11:32.966Z,99779.83
2023-01-08T11:14:29.002Z,99786.52
2023-01-08T11:16:58.507Z,99789.71
2023-01-08T11:19:30.626Z,99784.13
2023-01-08T11:22:01.675Z,99788.71
2023-01-08T11:24:30.786Z,99790.06
2023-01-08T11:27:10.428Z,99789.33
2023-01-08T11:29:46.021Z,99799.28
2023-01-08T11:32:26.101Z,99802.34
2023-01-08T11:34:54.040Z,99800.02
2023-01-08T11:37:25.225Z,99792.75
2023-01-08T11:39:53.712Z,99791.95
2023-01-08T11:42:48.355Z,99786.30
2023-01-08T11:45:27.441Z,99780.52
2023-01-08T11:48:14.526Z,99782.16
2023-01-08T11:50:59.974Z,99775.72
2023-01-08T11:53:47.961Z,99769.83
2023-01-08T11:56:40.633Z,99769.77
2023-01-08T11:59:44.436Z,99770.36
2023-01-08T12:02:34.478Z,99780.10
2023-01-08T12:05:21.678Z,99772.08
2023-01-08T12:08:08.470Z,99771.72
2023-01-08T12:10:49.669Z,99774.95
2023-01-08T12:13:33.478Z,99772.76
2023-01-08T12:16:06.458Z,99773.45
2023-01-08T12:19:05.661Z,99769.31
2023-01-08T12:21:41.700Z,99765.77
2023-01-08T12:24:43.691Z,99756.05
2023-01-08T12:27:55.371Z,99745.26
2023-01-08T12:30:43.720Z,99752.70
2023-01-08T12:33:32.491Z,99757.59
2023-01-08T12:36:03.704Z,99750.55
2023-01-08T12:38:38.164Z,99745.48
2023-01-08T12:41:12.021Z,99737.02
2023-01-08T12:43:45.047Z,99730.64
2023-01-08T12:46:13.904Z,99735.09
2023-01-08T12:48:42.543Z,99737.79
2023-01-08T12:51:21.125Z,99739.39
2023-01-08T12:54:03.699Z,99745.33
2023-01-08T12:56:50.772Z,99742.92
2023-01-08T12:59:25.166Z,99733.47
2023-01-08T13:02:21.214Z,99727.83
2023-01-08T13:04:49.397Z,99727.76
2023-01-08T13:07:21.134Z,99723.26
2023-01-08T13:10:03.885Z,99718.80
2023-01-08T13:12:35.704Z,99720.26
2023-01-08T13:15:04.745Z,99721.16
2023-01-08T13:17:32.862Z,99718.37
2023-01-08T13:20:02.324Z,99709.31
2023-01-08T13:22:33.148Z,99711.41
2023-01-08T13:25:19.119Z,99696.19
2023-01-08T13:27:48.316Z,99688.79
2023-01-08T13:30:48.537Z,99688.27
2023-01-08T13:33:35.464Z,99683.59
2023-01-08T13:36:21.107Z,99680.80
2023-01-08T13:39:10.712Z,99674.33
2023-01-08T13:41:46.067Z,99675.58
2023-01-08T13:44:27.210Z,99684.44
2023-01-08T13:46:56.974Z,99685.33
2023-01-08T13:49:36.890Z,99680.94
2023-01-08T13:52:05.614Z,99688.05
2023-01-08T13:54:37.673Z,99684.11
2023-01-08T13:57:11.475Z,99677.92
2023-01-08T13:59:42.612Z,99677.16
2023-01-08T14:02:33.297Z,99675.29
2023-01-08T14:05:01.866Z,99677.25
2023-01-08T14:07:30.796Z,99683.32
2023-01-08T14:10:12.844Z,99681.41
2023-01-08T14:12:41.241Z,99681.55
2023-01-08T14:15:24.654Z,99678.05
2023-01-08T14:17:53.227Z,99669.41
2023-01-08T14:20:32.087Z,99670.35
2023-01-08T14:23:02.250Z,99671.29
2023-01-08T14:25:30.316Z,99677.34
2023-01-08T14:28:04.415Z,99688.69
2023-01-08T14:30:33.181Z,99692.75
2023-01-08T14:33:01.783Z,99686.48
2023-01-08T14:35:33.617Z,99680.78
2023-01-08T14:38:05.735Z,99681.09
2023-01-08T14:40:39.045Z,99676.15
2023-01-08T14:43:10.237Z,99673.45
2023-01-08T14:45:40.434Z,99678.23
2023-01-08T14:48:09.693Z,99681.60
2023-01-08T14:50:40.461Z,99677.39
2023-01-08T14:53:15.451Z,99670.93
2023-01-08T14:55:46.473Z,99667.83
2023-01-08T14:58:17.332Z,99662.67
2023-01-08T15:00:51.292Z,99664.30
2023-01-08T15:03:40.206Z,99663.13
2023-01-08T15:06:11.599Z,99656.30
2023-01-08T15:08:44.472Z,99645.87
2023-01-08T15:11:18.439Z,99634.58
2023-01-08T15:13:48.262Z,99636.98
2023-01-08T15:16:34.422Z,99639.33
2023-01-08T15:19:16.006Z,99640.62
2023-01-08T15:21:51.299Z,99639.89
2023-01-08T15:24:22.166Z,99638.11
2023-01-08T15:26:51.090Z,99631.84
2023-01-08T15:29:33.515Z,99620.39
2023-01-08T15:32:13.683Z,99613.35
2023-01-08T15:34:43.125Z,99614.42
2023-01-08T15:37:12.002Z,99608.92
2023-01-08T15:39:39.965Z,99604.22
2023-01-08T15:42:36.357Z,99607.39
2023-01-08T15:45:06.101Z,99611.29
2023-01-08T15:47:34.315Z,99616.04
2023-01-08T15:50:02.403Z,99616.25
2023-01-08T15:52:31.350Z,99610.60
2023-01-08T15:55:00.021Z,99614.29
2023-01-08T15:57:30.613Z,99616.13
2023-01-08T15:59:59.247Z,99630.13
2023-01-08T16:02:27.232Z,99633.36
2023-01-08T16:04:56.747Z,99637.57
2023-01-08T16:07:24.744Z,99643.79
2023-01-08T16:09:52.782Z,99652.91
2023-01-08T16:12:20.752Z,99653.89
2023-01-08T16:14:48.690Z,99655.91
2023-01-08T16:17:16.585Z,99644.89
2023-01-08T16:19:44.887Z,99647.46
2023-01-08T16:22:13.047Z,99655.80
2023-01-08T16:24:40.987Z,99659.21
2023-01-08T16:27:09.992Z,99661.19
2023-01-08T16:29:38.004Z,99659.23
2023-01-08T16:32:05.929Z,99655.19
2023-01-08T16:34:34.612Z,99653.53
2023-01-08T16:37:02.580Z,99655.59
2023-01-08T16:39:32.262Z,99657.33
2023-01-08T16:42:00.785Z,99665.42
2023-01-08T16:44:28.985Z,99660.69
2023-01-08T16:46:56.879Z,99650.41
2023-01-08T16:49:25.014Z,99644.55
2023-01-08T16:51:53.718Z,99638.11
2023-01-08T16:54:21.942Z,99639.84
2023-01-08T16:56:50.247Z,99634.36
2023-01-08T16:59:23.779Z,99630.35
2023-01-08T17:01:52.706Z,99634.30
2023-01-08T17:04:21.213Z,99631.22
2023-01-08T17:06:49.157Z,99622.70
2023-01-08T17:09:17.264Z,99621.89
2023-01-08T17:11:46.051Z,99621.77
2023-01-08T17:14:14.103Z,99614.73
2023-01-08T17:16:45.384Z,99619.31
2023-01-08T17:19:13.621Z,99627.23
2023-01-08T17:21:41.663Z,99632.98
2023-01-08T17:24:10.040Z,99632.36
2023-01-08T17:26:38.075Z,99630.45
2023-01-08T17:29:06.069Z,99624.23
2023-01-08T17:31:40.092Z,99629.01
2023-01-08T17:34:12.405Z,99629.29
2023-01-08T17:36:40.556Z,99632.38
2023-01-08T17:39:08.605Z,99628.52
2023-01-08T17:41:55.818Z,99623.58
2023-01-08T17:44:26.583Z,99624.01
2023-01-08T17:46:54.573Z,99621.36
2023-01-08T17:49:22.553Z,99616.93
2023-01-08T17:51:51.842Z,99618.05
2023-01-08T17:54:20.226Z,99618.02
2023-01-08T17:56:49.406Z,99618.11
2023-01-08T17:59:18.399Z,99610.13
2023-01-08T18:01:47.385Z,99605.61
2023-01-08T18:04:15.809Z,99603.11
2023-01-08T18:06:44.042Z,99601.64
2023-01-08T18:09:12.878Z,99594.23
2023-01-08T18:11:42.585Z,99587.66
2023-01-08T18:14:12.430Z,99590.80
2023-01-08T18:16:45.565Z,99608.15
2023-01-08T18:19:14.341Z,99620.90
2023-01-08T18:21:43.837Z,99623.26
2023-01-08T18:24:12.124Z,99630.67
2023-01-08T18:26:40.463Z,99635.73
2023-01-08T18:29:09.064Z,99639.23
2023-01-08T18:31:37.383Z,99635.16
2023-01-08T18:34:09.180Z,99631.70
2023-01-08T18:36:37.563Z,99625.73
2023-01-08T18:39:05.735Z,99615.11
2023-01-08T18:41:52.376Z,99610.48
2023-01-08T18:44:20.671Z,99606.83
2023-01-08T18:46:48.884Z,99604.02
2023-01-08T18:49:16.783Z,99596.86
2023-01-08T18:51:45.568Z,99600.86
2023-01-08T18:54:13.518Z,99604.63
2023-01-08T18:56:41.434Z,99614.19
2023-01-08T18:59:10.751Z,99615.46
2023-01-08T19:01:39.183Z,99619.86
2023-01-08T19:04:07.506Z,99611.59
2023-01-08T19:06:35.710Z,99607.02
2023-01-08T19:09:04.029Z,99595.62
2023-01-08T19:11:31.891Z,99589.08
2023-01-08T19:14:00.469Z,99587.45
2023-01-08T19:16:28.499Z,99581.30
2023-01-08T19:18:56.844Z,99583.02
2023-01-08T19:21:25.375Z,99580.64
2023-01-08T19:23:54.331Z,99574.77
2023-01-08T19:26:22.413Z,99570.01
2023-01-08T19:28:51.084Z,99567.19
2023-01-08T19:31:19.402Z,99569.83
2023-01-08T19:33:48.659Z,99562.08
2023-01-08T19:36:18.778Z,99558.59
2023-01-08T19:38:48.006Z,99560.91
2023-01-08T19:41:34.816Z,99559.27
2023-01-08T19:44:04.814Z,99553.12
2023-01-08T19:46:33.046Z,99550.80
2023-01-08T19:49:01.946Z,99547.23
2023-01-08T19:51:31.865Z,99543.23
2023-01-08T19:54:02.809Z,99537.52
2023-01-08T19:56:30.805Z,99528.14
2023-01-08T19:58:59.224Z,99519.83
2023-01-08T20:01:28.312Z,99515.10
2023-01-08T20:03:56.826Z,99513.63
2023-01-08T20:06:27.303Z,99506.64
2023-01-08T20:08:58.564Z,99512.27
2023-01-08T20:11:27.978Z,99505.77
2023-01-08T20:14:00.627Z,99502.48
2023-01-08T20:16:29.905Z,99497.67
2023-01-08T20:19:05.193Z,99489.70
2023-01-08T20:21:34.587Z,99480.74
2023-01-08T20:24:08.683Z,99467.89
2023-01-08T20:26:37.549Z,99457.58
2023-01-08T20:29:06.530Z,99456.41
2023-01-08T20:31:35.361Z,99459.51
2023-01-08T20:34:06.414Z,99455.30
2023-01-08T20:36:35.000Z,99455.37
2023-01-08T20:39:07.972Z,99455.88
2023-01-08T20:41:36.076Z,99457.66
2023-01-08T20:44:08.076Z,99457.90
2023-01-08T20:46:37.578Z,99455.30
2023-01-08T20:49:08.543Z,99445.55
2023-01-08T20:51:39.718Z,99429.83
2023-01-08T20:54:11.305Z,99424.05
2023-01-08T20:56:39.601Z,99417.92
2023-01-08T20:59:07.539Z,99416.20
2023-01-08T21:01:36.553Z,99414.83
2023-01-08T21:04:07.010Z,99415.40
2023-01-08T21:06:37.727Z,99415.79
2023-01-08T21:09:08.616Z,99418.14
2023-01-08T21:11:38.731Z,99420.95
2023-01-08T21:14:08.179Z,99421.02
2023-01-08T21:16:39.848Z,99422.52
2023-01-08T21:19:10.462Z,99415.97
2023-01-08T21:21:40.688Z,99412.83
2023-01-08T21:24:11.499Z,99412.62
2023-01-08T21:26:40.192Z,99416.83
2023-01-08T21:29:09.237Z,99410.77
2023-01-08T21:31:38.380Z,99411.89
2023-01-08T21:34:09.080Z,99411.52
2023-01-08T21:36:37.176Z,99415.25
2023-01-08T21:39:05.211Z,99414.02
2023-01-08T21:41:51.900Z,99413.59
2023-01-08T21:44:43.176Z,99411.41
2023-01-08T21:47:14.786Z,99416.77
2023-01-08T21:49:43.028Z,99411.52
2023-01-08T21:52:29.643Z,99398.07
2023-01-08T21:55:00.513Z,99384.58
2023-01-08T21:57:28.651Z,99392.96
2023-01-08T21:59:56.787Z,99401.70
2023-01-08T22:02:25.192Z,99403.42
2023-01-08T22:04:56.380Z,99392.34
2023-01-08T22:07:26.072Z,99379.15
2023-01-08T22:09:54.411Z,99371.36
2023-01-08T22:12:23.453Z,99364.73
2023-01-08T22:14:57.495Z,99352.05
2023-01-08T22:17:26.603Z,99348.80
2023-01-08T22:19:54.713Z,99349.67
2023-01-08T22:22:23.064Z,99349.61
2023-01-08T22:24:52.522Z,99351.09
2023-01-08T22:27:21.201Z,99348.28
2023-01-08T22:29:49.318Z,99344.84
2023-01-08T22:32:17.336Z,99353.05
2023-01-08T22:34:45.789Z,99352.75
2023-01-08T22:37:14.092Z,99350.58
2023-01-08T22:39:42.099Z,99347.45
2023-01-08T22:42:10.057Z,99346.11
2023-01-08T22:44:38.175Z,99346.14
2023-01-08T22:47:08.506Z,99343.67
2023-01-08T22:49:38.009Z,99346.32
2023-01-08T22:52:06.811Z,99343.17
2023-01-08T22:54:34.926Z,99344.33
2023-01-08T22:57:03.225Z,99339.34
2023-01-08T22:59:31.156Z,99333.73
2023-01-08T23:01:59.243Z,99327.78
2023-01-08T23:04:27.432Z,99325.42
2023-01-08T23:06:55.665Z,99316.16
2023-01-08T23:09:23.755Z,99315.08
2023-01-08T23:11:51.515Z,99318.96
2023-01-08T23:14:22.672Z,99313.98
2023-01-08T23:16:50.603Z,99310.38
2023-01-08T23:19:18.593Z,99308.17
2023-01-08T23:21:46.791Z,99304.00
2023-01-08T23:24:15.026Z,99299.30
2023-01-08T23:26:43.294Z,99290.98
2023-01-08T23:29:11.469Z,99279.96
2023-01-08T23:31:39.632Z,99284.06
2023-01-08T23:34:07.731Z,99286.03
2023-01-08T23:36:35.876Z,99281.55
2023-01-08T23:39:04.644Z,99277.72
2023-01-08T23:41:34.860Z,99274.38
2023-01-08T23:44:06.450Z,99271.91
2023-01-08T23:46:37.146Z,99273.52
2023-01-08T23:49:06.448Z,99277.23
2023-01-08T23:51:34.489Z,99280.75
2023-01-08T23:54:02.913Z,99278.41
2023-01-08T23:56:31.791Z,99272.97
2023-01-08T23:58:59.923Z,99270.46
